createdAt,value
2018-11-25T00:00:49.168Z,631.9
2018-11-25T00:01:51.318Z,632
2018-11-25T00:02:53.453Z,632.1
2018-11-25T00:03:55.888Z,632.2
2018-11-25T00:04:57.759Z,632.2
2018-11-25T00:05:59.613Z,632.2
2018-11-25T00:07:02.041Z,632.7
2018-11-25T00:08:04.461Z,632.4
2018-11-25T00:09:06.605Z,632.4
2018-11-25T00:10:08.775Z,632.7
2018-11-25T00:11:11.198Z,632.8
2018-11-25T00:12:12.812Z,632.9
2018-11-25T00:13:15.772Z,632.7
2018-11-25T00:14:17.955Z,632.7
2018-11-25T00:15:20.143Z,633
2018-11-25T00:16:22.295Z,632.7
2018-11-25T00:17:24.457Z,632.8
2018-11-25T00:18:26.614Z,633.1
2018-11-25T00:19:28.760Z,633.2
2018-11-25T00:20:31.192Z,633.3
2018-11-25T00:21:33.119Z,633.5
2018-11-25T00:22:35.258Z,633.3
2018-11-25T00:23:37.411Z,633
2018-11-25T00:24:39.828Z,633.2
2018-11-25T00:25:42.259Z,633.7
2018-11-25T00:26:44.684Z,633
2018-11-25T00:27:46.819Z,633.3
2018-11-25T00:28:49.249Z,633.3
2018-11-25T00:29:51.415Z,633.3
2018-11-25T00:30:53.573Z,633.4
2018-11-25T00:31:55.996Z,633.1
2018-11-25T00:32:58.139Z,633.2
2018-11-25T00:34:00.043Z,633.6
2018-11-25T00:35:02.202Z,633.6
2018-11-25T00:36:04.629Z,633.6
2018-11-25T00:37:06.788Z,633.6
2018-11-25T00:38:08.406Z,633.4
2018-11-25T00:39:10.558Z,633.5
2018-11-25T00:40:12.710Z,633.5
2018-11-25T00:41:15.143Z,633.6
2018-11-25T00:42:17.304Z,633.6
2018-11-25T00:43:19.464Z,633.9
2018-11-25T00:44:21.877Z,633.5
2018-11-25T00:45:24.040Z,633.6
2018-11-25T00:46:26.473Z,633.9
2018-11-25T00:47:28.627Z,633.7
2018-11-25T00:48:31.048Z,634.1
2018-11-25T00:49:33.203Z,634.4
2018-11-25T00:50:35.355Z,634.3
2018-11-25T00:51:37.514Z,634.8
2018-11-25T00:52:39.942Z,634.6
2018-11-25T00:53:42.390Z,634.3
2018-11-25T00:54:44.289Z,634.6
2018-11-25T00:55:46.436Z,634.4
2018-11-25T00:56:48.587Z,634.2
2018-11-25T00:57:51.019Z,634.4
2018-11-25T00:58:52.901Z,634.4
2018-11-25T00:59:55.327Z,634.2
2018-11-25T01:00:57.479Z,634
2018-11-25T01:01:59.088Z,633.9
2018-11-25T01:03:01.217Z,634
2018-11-25T01:04:03.630Z,634
2018-11-25T01:05:06.060Z,633.8
2018-11-25T01:06:08.487Z,633.8
2018-11-25T01:07:10.915Z,633.5
2018-11-25T01:08:13.049Z,633.6
2018-11-25T01:09:14.909Z,633.6
2018-11-25T01:10:17.340Z,633.7
2018-11-25T01:11:19.228Z,633.5
2018-11-25T01:12:20.821Z,633.7
2018-11-25T01:13:22.993Z,633.6
2018-11-25T01:14:25.426Z,633.6
2018-11-25T01:15:27.288Z,634
2018-11-25T01:16:29.722Z,633.5
2018-11-25T01:17:31.586Z,633.7
2018-11-25T01:18:33.471Z,633.9
2018-11-25T01:19:35.327Z,633.8
2018-11-25T01:20:37.479Z,633.9
2018-11-25T01:21:39.637Z,633.9
2018-11-25T01:22:42.067Z,633.8
2018-11-25T01:23:43.953Z,634.4
2018-11-25T01:24:46.099Z,633.7
2018-11-25T01:25:48.539Z,633.5
2018-11-25T01:26:50.696Z,633.6
2018-11-25T01:27:53.126Z,633.6
2018-11-25T01:28:55.286Z,633.9
2018-11-25T01:29:57.487Z,633.9
2018-11-25T01:30:59.912Z,634.1
2018-11-25T01:32:02.339Z,634.5
2018-11-25T01:33:04.773Z,634.3
2018-11-25T01:34:07.196Z,634.4
2018-11-25T01:35:09.089Z,634.4
2018-11-25T01:36:10.949Z,634.7
2018-11-25T01:37:13.107Z,634.9
2018-11-25T01:38:15.543Z,635.2
2018-11-25T01:39:17.689Z,635.3
2018-11-25T01:40:20.114Z,635.9
2018-11-25T01:41:22.538Z,635.6
2018-11-25T01:42:24.699Z,635.7
2018-11-25T01:43:26.828Z,636
2018-11-25T01:44:29.260Z,636.4
2018-11-25T01:45:31.405Z,635.7
2018-11-25T01:46:33.548Z,636.6
2018-11-25T01:47:35.980Z,636.3
2018-11-25T01:48:38.419Z,636.6
2018-11-25T01:49:40.574Z,636.9
2018-11-25T01:50:43.007Z,637
2018-11-25T01:51:45.167Z,637.4
2018-11-25T01:52:47.309Z,637.3
2018-11-25T01:53:49.588Z,637.5
2018-11-25T01:54:51.488Z,638.2
2018-11-25T01:55:53.367Z,637.7
2018-11-25T01:56:55.263Z,638.1
2018-11-25T01:57:57.683Z,638.7
2018-11-25T01:59:00.902Z,638.5
2018-11-25T02:00:03.070Z,638.6
2018-11-25T02:01:05.506Z,638.9
2018-11-25T02:02:07.115Z,639.2
2018-11-25T02:03:08.995Z,639.4
2018-11-25T02:04:10.627Z,639.2
2018-11-25T02:05:13.051Z,639.3
2018-11-25T02:06:14.642Z,639.1
2018-11-25T02:07:16.827Z,639.4
2018-11-25T02:08:19.260Z,639.4
2018-11-25T02:09:21.399Z,639.2
2018-11-25T02:10:23.531Z,639.4
2018-11-25T02:11:25.965Z,639.3
2018-11-25T02:12:28.419Z,639.3
2018-11-25T02:13:30.569Z,639.3
2018-11-25T02:14:32.996Z,639.3
2018-11-25T02:15:35.159Z,639.1
2018-11-25T02:16:37.628Z,639.1
2018-11-25T02:17:39.786Z,639.3
2018-11-25T02:18:41.664Z,639.6
2018-11-25T02:19:44.111Z,639.8
2018-11-25T02:20:46.260Z,640.1
2018-11-25T02:21:48.149Z,640.1
2018-11-25T02:22:50.307Z,640.1
2018-11-25T02:23:52.459Z,640.2
2018-11-25T02:24:54.886Z,640.1
2018-11-25T02:25:57.029Z,640.2
2018-11-25T02:26:59.238Z,640.3
2018-11-25T02:28:01.395Z,640.6
2018-11-25T02:29:03.267Z,640.3
2018-11-25T02:30:05.700Z,640.6
2018-11-25T02:31:07.856Z,640.4
2018-11-25T02:32:10.292Z,640.6
2018-11-25T02:33:12.430Z,640.6
2018-11-25T02:34:14.038Z,640.7
2018-11-25T02:35:15.639Z,640.9
2018-11-25T02:36:17.779Z,640.8
2018-11-25T02:37:20.204Z,640.8
2018-11-25T02:38:22.637Z,640.9
2018-11-25T02:39:23.979Z,641.2
2018-11-25T02:40:26.411Z,641.4
2018-11-25T02:41:28.846Z,641.2
2018-11-25T02:42:30.712Z,641.1
2018-11-25T02:43:32.858Z,641.4
2018-11-25T02:44:35.291Z,641.2
2018-11-25T02:45:36.886Z,641.4
2018-11-25T02:46:39.042Z,641.4
2018-11-25T02:47:40.917Z,641.6
2018-11-25T02:48:43.066Z,641.6
2018-11-25T02:49:45.304Z,641.5
2018-11-25T02:50:47.180Z,641.7
2018-11-25T02:51:49.070Z,641.9
2018-11-25T02:52:50.970Z,641.6
2018-11-25T02:53:53.123Z,642.5
2018-11-25T02:54:55.278Z,642.2
2018-11-25T02:55:57.431Z,642.4
2018-11-25T02:56:59.291Z,642.1
2018-11-25T02:58:02.581Z,642.5
2018-11-25T02:59:05.006Z,642.3
2018-11-25T03:00:07.169Z,642.4
2018-11-25T03:01:09.332Z,641.9
2018-11-25T03:02:11.198Z,641.8
2018-11-25T03:03:13.627Z,641.8
2018-11-25T03:04:16.060Z,641.7
2018-11-25T03:05:17.927Z,641.7
2018-11-25T03:06:20.096Z,641.4
2018-11-25T03:07:22.529Z,641.1
2018-11-25T03:08:24.135Z,641.5
2018-11-25T03:09:26.295Z,641.6
2018-11-25T03:10:28.449Z,641.4
2018-11-25T03:11:30.891Z,641.1
2018-11-25T03:12:33.019Z,641.3
2018-11-25T03:13:35.450Z,641.1
2018-11-25T03:14:37.876Z,641
2018-11-25T03:15:40.307Z,641
2018-11-25T03:16:41.922Z,641.1
2018-11-25T03:17:44.062Z,641.3
2018-11-25T03:18:46.220Z,641.4
2018-11-25T03:19:48.388Z,641.1
2018-11-25T03:20:50.548Z,641.2
2018-11-25T03:21:52.691Z,641.9
2018-11-25T03:22:54.577Z,641.7
2018-11-25T03:23:56.740Z,642.1
2018-11-25T03:24:58.878Z,642.5
2018-11-25T03:26:00.748Z,642.1
2018-11-25T03:27:02.910Z,642.1
2018-11-25T03:28:04.780Z,641.8
2018-11-25T03:29:07.215Z,642
2018-11-25T03:30:09.375Z,642.1
2018-11-25T03:31:11.821Z,642.1
2018-11-25T03:32:13.965Z,642.2
2018-11-25T03:33:16.412Z,641.9
2018-11-25T03:34:18.295Z,641.9
2018-11-25T03:35:20.741Z,642
2018-11-25T03:36:23.195Z,642.2
2018-11-25T03:37:25.360Z,641.8
2018-11-25T03:38:27.498Z,642.1
2018-11-25T03:39:29.939Z,642.1
2018-11-25T03:40:32.110Z,641.6
2018-11-25T03:41:34.537Z,641.7
2018-11-25T03:42:36.689Z,641.9
2018-11-25T03:43:39.100Z,641.9
2018-11-25T03:44:40.970Z,642.1
2018-11-25T03:45:43.113Z,642.1
2018-11-25T03:46:45.530Z,642.3
2018-11-25T03:47:47.689Z,642.4
2018-11-25T03:48:49.828Z,642.6
2018-11-25T03:49:51.693Z,642.6
2018-11-25T03:50:54.119Z,642.9
2018-11-25T03:51:56.004Z,642.6
2018-11-25T03:52:58.422Z,642.7
2018-11-25T03:54:00.579Z,642.9
2018-11-25T03:55:03.016Z,643.2
2018-11-25T03:56:05.176Z,643.3
2018-11-25T03:57:07.360Z,643.4
2018-11-25T03:58:09.508Z,643.4
2018-11-25T03:59:11.656Z,644.4
2018-11-25T04:00:13.817Z,644.4
2018-11-25T04:01:16.248Z,644.5
2018-11-25T04:02:18.699Z,644.4
2018-11-25T04:03:21.114Z,644.5
2018-11-25T04:04:23.341Z,644.7
2018-11-25T04:05:25.506Z,644.7
2018-11-25T04:06:27.940Z,644.6
2018-11-25T04:07:30.108Z,644.7
2018-11-25T04:08:32.529Z,645.1
2018-11-25T04:09:34.446Z,645.2
2018-11-25T04:10:36.605Z,645.3
2018-11-25T04:11:38.768Z,645.1
2018-11-25T04:12:40.636Z,645.5
2018-11-25T04:13:42.802Z,645.9
2018-11-25T04:14:44.684Z,644.7
2018-11-25T04:15:46.846Z,645.2
2018-11-25T04:16:48.730Z,646.1
2018-11-25T04:17:51.169Z,646.1
2018-11-25T04:18:53.055Z,646.3
2018-11-25T04:19:55.190Z,646.3
2018-11-25T04:20:57.625Z,646.8
2018-11-25T04:21:59.512Z,647
2018-11-25T04:23:01.369Z,646.8
2018-11-25T04:24:03.788Z,646.9
2018-11-25T04:25:05.953Z,647.3
2018-11-25T04:26:08.100Z,647.3
2018-11-25T04:27:10.260Z,647.7
2018-11-25T04:28:12.384Z,647.5
2018-11-25T04:29:14.546Z,647.7
2018-11-25T04:30:16.990Z,647.8
2018-11-25T04:31:18.897Z,648
2018-11-25T04:32:21.064Z,647.5
2018-11-25T04:33:23.218Z,647.5
2018-11-25T04:34:25.650Z,647
2018-11-25T04:35:27.814Z,647
2018-11-25T04:36:29.699Z,647.2
2018-11-25T04:37:31.856Z,647.2
2018-11-25T04:38:34.030Z,647.5
2018-11-25T04:39:35.918Z,647.3
2018-11-25T04:40:38.086Z,647.3
2018-11-25T04:41:40.249Z,647.5
2018-11-25T04:42:42.392Z,647.2
2018-11-25T04:43:44.272Z,647.4
2018-11-25T04:44:46.695Z,647.6
2018-11-25T04:45:48.849Z,647.8
2018-11-25T04:46:51.264Z,647.7
2018-11-25T04:47:53.408Z,647.8
2018-11-25T04:48:55.828Z,648
2018-11-25T04:49:57.992Z,648.3
2018-11-25T04:50:59.884Z,648.1
2018-11-25T04:52:02.306Z,648.4
2018-11-25T04:53:04.469Z,648.4
2018-11-25T04:54:06.898Z,648.4
2018-11-25T04:55:09.030Z,648.8
2018-11-25T04:56:10.887Z,648.7
2018-11-25T04:57:12.482Z,648.7
2018-11-25T04:58:14.910Z,648.5
2018-11-25T04:59:17.338Z,648.9
2018-11-25T05:00:19.776Z,648.8
2018-11-25T05:01:21.646Z,648.8
2018-11-25T05:02:23.805Z,648.8
2018-11-25T05:03:26.238Z,648.7
2018-11-25T05:04:28.118Z,648.6
2018-11-25T05:05:30.266Z,648.2
2018-11-25T05:06:32.129Z,648.9
2018-11-25T05:07:34.291Z,648.7
2018-11-25T05:08:36.718Z,649.2
2018-11-25T05:09:38.617Z,649.2
2018-11-25T05:10:41.038Z,649.2
2018-11-25T05:11:43.470Z,649.2
2018-11-25T05:12:45.351Z,649.4
2018-11-25T05:13:47.214Z,649.6
2018-11-25T05:14:49.389Z,649.5
2018-11-25T05:15:51.546Z,650.1
2018-11-25T05:16:53.146Z,649.6
2018-11-25T05:17:55.034Z,649.7
2018-11-25T05:18:56.907Z,650.1
2018-11-25T05:19:58.768Z,650.1
2018-11-25T05:21:00.375Z,649.8
2018-11-25T05:22:02.518Z,650.3
2018-11-25T05:23:04.678Z,650.4
2018-11-25T05:24:06.850Z,650.3
2018-11-25T05:25:09.277Z,649.9
2018-11-25T05:26:11.418Z,650.3
2018-11-25T05:27:13.579Z,650.2
2018-11-25T05:28:15.443Z,649.9
2018-11-25T05:29:17.597Z,650.1
2018-11-25T05:30:19.742Z,649.7
2018-11-25T05:31:21.886Z,650.1
2018-11-25T05:32:24.328Z,650.3
2018-11-25T05:33:26.758Z,649.9
2018-11-25T05:34:29.182Z,650.5
2018-11-25T05:35:31.066Z,650.4
2018-11-25T05:36:32.663Z,650.7
2018-11-25T05:37:35.079Z,650.5
2018-11-25T05:38:36.959Z,650.9
2018-11-25T05:39:39.384Z,650.8
2018-11-25T05:40:40.979Z,650.9
2018-11-25T05:41:42.648Z,651.1
2018-11-25T05:42:44.782Z,651
2018-11-25T05:43:46.650Z,650.9
2018-11-25T05:44:48.538Z,650.7
2018-11-25T05:45:50.422Z,650.9
2018-11-25T05:46:52.851Z,650.8
2018-11-25T05:47:55.280Z,651
2018-11-25T05:48:57.715Z,651
2018-11-25T05:49:59.864Z,651
2018-11-25T05:51:02.006Z,651.3
2018-11-25T05:52:04.428Z,650.9
2018-11-25T05:53:06.581Z,651.5
2018-11-25T05:54:08.718Z,651.3
2018-11-25T05:55:10.316Z,651.3
2018-11-25T05:56:12.753Z,651.9
2018-11-25T05:57:14.640Z,651.9
2018-11-25T05:58:16.246Z,652.1
2018-11-25T05:59:18.686Z,652.1
2018-11-25T06:00:20.830Z,652.1
2018-11-25T06:01:22.980Z,652.2
2018-11-25T06:02:24.864Z,652.1
2018-11-25T06:03:27.016Z,653
2018-11-25T06:04:29.457Z,652.7
2018-11-25T06:05:31.895Z,653
2018-11-25T06:06:34.051Z,653.1
2018-11-25T06:07:36.214Z,653.2
2018-11-25T06:08:38.128Z,653.2
2018-11-25T06:09:40.258Z,653.4
2018-11-25T06:10:43.969Z,653.4
2018-11-25T06:11:45.843Z,654.1
2018-11-25T06:12:48.268Z,653.5
2018-11-25T06:13:50.419Z,654.3
2018-11-25T06:14:52.847Z,654.2
2018-11-25T06:15:54.720Z,654.1
2018-11-25T06:16:56.589Z,654.1
2018-11-25T06:17:59.005Z,654
2018-11-25T06:19:01.429Z,654.3
2018-11-25T06:20:03.566Z,653.9
2018-11-25T06:21:05.722Z,654.6
2018-11-25T06:22:07.574Z,654.4
2018-11-25T06:23:09.737Z,654.3
2018-11-25T06:24:11.616Z,654.5
2018-11-25T06:25:14.061Z,654.4
2018-11-25T06:26:16.488Z,654.9
2018-11-25T06:27:18.648Z,654.8
2018-11-25T06:28:20.791Z,655
2018-11-25T06:29:22.417Z,654.7
2018-11-25T06:30:24.564Z,654.8
2018-11-25T06:31:28.053Z,654.9
2018-11-25T06:32:30.275Z,655.5
2018-11-25T06:33:32.138Z,655
2018-11-25T06:34:33.473Z,655.3
2018-11-25T06:35:35.899Z,656
2018-11-25T06:36:38.309Z,655.8
2018-11-25T06:37:40.785Z,655.8
2018-11-25T06:38:42.649Z,655.9
2018-11-25T06:39:45.098Z,655.6
2018-11-25T06:40:47.246Z,655.5
2018-11-25T06:41:49.396Z,655.3
2018-11-25T06:42:51.829Z,655.4
2018-11-25T06:43:55.398Z,655
2018-11-25T06:44:57.591Z,655.3
2018-11-25T06:45:59.735Z,655.5
2018-11-25T06:47:01.661Z,655
2018-11-25T06:48:04.091Z,655.5
2018-11-25T06:49:06.507Z,655.3
2018-11-25T06:50:08.938Z,655.7
2018-11-25T06:51:10.529Z,655.9
2018-11-25T06:52:12.656Z,655.9
2018-11-25T06:53:14.592Z,656
2018-11-25T06:54:17.020Z,655.6
2018-11-25T06:55:19.184Z,656.1
2018-11-25T06:57:26.307Z,655.9
2018-11-25T06:58:28.451Z,656.5
2018-11-25T06:59:30.637Z,656.8
2018-11-25T07:00:32.539Z,656.6
2018-11-25T07:01:34.139Z,656.5
2018-11-25T07:02:36.028Z,656.9
2018-11-25T07:03:37.895Z,656.1
2018-11-25T07:04:40.326Z,656.7
2018-11-25T07:05:42.207Z,656.7
2018-11-25T07:06:44.638Z,656.6
2018-11-25T07:07:47.080Z,657
2018-11-25T07:08:49.235Z,656.7
2018-11-25T07:09:51.388Z,656.8
2018-11-25T07:10:53.286Z,656.8
2018-11-25T07:11:55.143Z,656.9
2018-11-25T07:12:56.728Z,657
2018-11-25T07:13:58.873Z,656.6
2018-11-25T07:15:01.023Z,656.7
2018-11-25T07:16:03.465Z,656.5
2018-11-25T07:17:05.889Z,656.3
2018-11-25T07:18:08.319Z,655.9
2018-11-25T07:19:10.751Z,656.2
2018-11-25T07:20:12.908Z,656
2018-11-25T07:21:14.815Z,655.9
2018-11-25T07:22:16.970Z,656.3
2018-11-25T07:23:18.279Z,656.2
2018-11-25T07:24:20.455Z,655.9
2018-11-25T07:25:21.795Z,655.9
2018-11-25T07:26:24.257Z,656.4
2018-11-25T07:27:26.395Z,656.1
2018-11-25T07:28:28.830Z,656
2018-11-25T07:29:30.171Z,656.1
2018-11-25T07:30:32.321Z,655.9
2018-11-25T07:31:33.915Z,655.3
2018-11-25T07:32:36.078Z,656.3
2018-11-25T07:33:37.677Z,655.4
2018-11-25T07:34:39.863Z,655.7
2018-11-25T07:35:41.447Z,656
2018-11-25T07:36:43.355Z,656.2
2018-11-25T07:37:45.503Z,656.6
2018-11-25T07:38:47.930Z,657
2018-11-25T07:39:50.375Z,657
2018-11-25T07:40:52.792Z,657.3
2018-11-25T07:41:54.953Z,656.6
2018-11-25T07:42:57.119Z,657.2
2018-11-25T07:43:58.991Z,657.2
2018-11-25T07:45:01.145Z,657.4
2018-11-25T07:46:04.505Z,657.4
2018-11-25T07:47:06.674Z,657.6
2018-11-25T07:48:08.547Z,657.6
2018-11-25T07:49:10.759Z,657.6
2018-11-25T07:50:12.679Z,657.8
2018-11-25T07:51:15.099Z,657.6
2018-11-25T07:52:17.268Z,657.6
2018-11-25T07:53:19.432Z,657.6
2018-11-25T07:54:21.619Z,657.8
2018-11-25T07:55:24.040Z,658.1
2018-11-25T07:56:26.459Z,657.8
2018-11-25T07:57:28.598Z,658
2018-11-25T07:58:30.199Z,658
2018-11-25T07:59:32.079Z,658.4
2018-11-25T08:00:34.239Z,658.5
2018-11-25T08:01:36.664Z,658.8
2018-11-25T08:03:43.776Z,658.6
2018-11-25T08:04:45.108Z,658.4
2018-11-25T08:05:46.992Z,658.6
2018-11-25T08:06:49.137Z,658.7
2018-11-25T08:07:51.556Z,658.5
2018-11-25T08:08:53.697Z,658.7
2018-11-25T08:09:56.128Z,658.6
2018-11-25T08:10:58.551Z,658.7
2018-11-25T08:12:00.998Z,658.5
2018-11-25T08:13:03.419Z,658.8
2018-11-25T08:14:04.746Z,659.1
2018-11-25T08:15:06.605Z,658.6
2018-11-25T08:16:09.028Z,659.6
2018-11-25T08:17:11.468Z,659.1
2018-11-25T08:18:13.899Z,659.9
2018-11-25T08:19:16.330Z,659.8
2018-11-25T08:20:18.752Z,659.9
2018-11-25T08:21:20.635Z,660.1
2018-11-25T08:22:22.768Z,660.2
2018-11-25T08:23:24.665Z,660.5
2018-11-25T08:24:27.113Z,660.2
2018-11-25T08:25:29.277Z,660.5
2018-11-25T08:26:30.591Z,660.4
2018-11-25T08:27:33.037Z,661.1
2018-11-25T08:28:35.478Z,661.2
2018-11-25T08:29:37.360Z,661
2018-11-25T08:30:39.236Z,661.3
2018-11-25T08:31:41.411Z,661.3
2018-11-25T08:32:43.880Z,661.1
2018-11-25T08:33:46.068Z,661.7
2018-11-25T08:34:48.224Z,661.6
2018-11-25T08:35:50.644Z,661.6
2018-11-25T08:36:52.810Z,661.6
2018-11-25T08:37:54.953Z,661.7
2018-11-25T08:38:57.108Z,661.9
2018-11-25T08:39:59.543Z,661.3
2018-11-25T08:41:01.705Z,661.3
2018-11-25T08:42:03.859Z,661.6
2018-11-25T08:43:06.299Z,661.5
2018-11-25T08:44:08.737Z,661.3
2018-11-25T08:45:10.912Z,661.6
2018-11-25T08:46:13.333Z,661.2
2018-11-25T08:47:15.765Z,661.7
2018-11-25T08:48:17.651Z,661.6
2018-11-25T08:49:19.808Z,660.9
2018-11-25T08:50:22.229Z,661.1
2018-11-25T08:51:24.375Z,661.3
2018-11-25T08:52:26.590Z,661.2
2018-11-25T08:53:28.501Z,661.7
2018-11-25T08:54:30.408Z,661
2018-11-25T08:55:32.840Z,661.4
2018-11-25T08:56:35.004Z,661.2
2018-11-25T08:57:37.157Z,661.5
2018-11-25T08:58:39.590Z,661.7
2018-11-25T08:59:42.028Z,661.6
2018-11-25T09:00:44.152Z,661.7
2018-11-25T09:01:46.306Z,661.6
2018-11-25T09:02:48.728Z,661.6
2018-11-25T09:03:50.886Z,661.5
2018-11-25T09:04:52.757Z,661.6
2018-11-25T09:05:54.904Z,661.8
2018-11-25T09:06:57.082Z,662.1
2018-11-25T09:07:59.271Z,662.2
2018-11-25T09:09:01.137Z,662.4
2018-11-25T09:10:03.014Z,662.4
2018-11-25T09:11:04.889Z,662.2
2018-11-25T09:12:06.198Z,662.6
2018-11-25T09:13:08.076Z,662.5
2018-11-25T09:14:10.547Z,662.7
2018-11-25T09:15:12.698Z,662.6
2018-11-25T09:16:15.128Z,662.6
2018-11-25T09:17:17.558Z,663
2018-11-25T09:18:19.717Z,663
2018-11-25T09:19:21.852Z,663.1
2018-11-25T09:20:23.994Z,662.9
2018-11-25T09:21:25.848Z,662.7
2018-11-25T09:22:28.025Z,663.3
2018-11-25T09:23:30.461Z,663.4
2018-11-25T09:24:32.897Z,663.2
2018-11-25T09:25:35.328Z,663.2
2018-11-25T09:26:37.212Z,663.1
2018-11-25T09:27:39.642Z,663.1
2018-11-25T09:28:42.135Z,663.5
2018-11-25T09:29:43.997Z,663.6
2018-11-25T09:30:45.867Z,663.5
2018-11-25T09:31:48.315Z,663.7
2018-11-25T09:32:50.741Z,664.3
2018-11-25T09:33:52.618Z,664.6
2018-11-25T09:34:54.205Z,664.8
2018-11-25T09:35:56.379Z,664.6
2018-11-25T09:36:58.810Z,665
2018-11-25T09:38:01.270Z,664.8
2018-11-25T09:39:03.150Z,665
2018-11-25T09:40:05.313Z,664.8
2018-11-25T09:41:07.540Z,664.6
2018-11-25T09:42:09.446Z,664.4
2018-11-25T09:43:11.875Z,664.7
2018-11-25T09:44:14.568Z,664.5
2018-11-25T09:45:17.551Z,665.1
2018-11-25T09:46:19.730Z,665.3
2018-11-25T09:47:22.156Z,665.3
2018-11-25T09:48:24.301Z,665
2018-11-25T09:49:26.728Z,665.6
2018-11-25T09:50:28.884Z,665.5
2018-11-25T09:51:30.740Z,665.3
2018-11-25T09:52:32.600Z,665.5
2018-11-25T09:53:34.211Z,666.1
2018-11-25T09:54:36.639Z,666
2018-11-25T09:55:37.980Z,666.4
2018-11-25T09:56:40.418Z,666.4
2018-11-25T09:57:42.850Z,666.9
2018-11-25T09:58:45.286Z,667
2018-11-25T09:59:47.184Z,667
2018-11-25T10:00:49.613Z,667.3
2018-11-25T10:01:51.757Z,666.7
2018-11-25T10:02:53.934Z,666.8
2018-11-25T10:03:55.541Z,667.1
2018-11-25T10:04:57.689Z,667.2
2018-11-25T10:05:59.854Z,667.1
2018-11-25T10:07:04.550Z,667.7
2018-11-25T10:08:06.710Z,667.3
2018-11-25T10:09:08.577Z,668
2018-11-25T10:10:11.018Z,667.8
2018-11-25T10:11:13.170Z,667.7
2018-11-25T10:12:15.590Z,668
2018-11-25T10:13:18.394Z,668.4
2018-11-25T10:14:21.077Z,668.5
2018-11-25T10:15:23.511Z,668.6
2018-11-25T10:16:25.038Z,668.6
2018-11-25T10:17:27.196Z,669.1
2018-11-25T10:18:28.797Z,669.3
2018-11-25T10:19:30.972Z,669.5
2018-11-25T10:20:33.413Z,669.8
2018-11-25T10:21:35.844Z,670.3
2018-11-25T10:22:38.684Z,670.3
2018-11-25T10:23:40.844Z,670.7
2018-11-25T10:24:42.994Z,670.3
2018-11-25T10:25:45.144Z,670.6
2018-11-25T10:26:47.326Z,670.8
2018-11-25T10:27:49.749Z,671.2
2018-11-25T10:28:51.906Z,671
2018-11-25T10:29:54.090Z,671
2018-11-25T10:30:56.511Z,671.2
2018-11-25T10:31:58.944Z,671.7
2018-11-25T10:33:01.112Z,671.6
2018-11-25T10:34:03.262Z,671.7
2018-11-25T10:35:05.688Z,671.8
2018-11-25T10:36:07.825Z,672.1
2018-11-25T10:37:09.450Z,672.5
2018-11-25T10:38:11.875Z,672.7
2018-11-25T10:39:14.980Z,672.5
2018-11-25T10:40:16.926Z,673
2018-11-25T10:41:18.819Z,673
2018-11-25T10:42:21.245Z,673.4
2018-11-25T10:43:23.675Z,672.8
2018-11-25T10:44:25.821Z,673.1
2018-11-25T10:45:27.977Z,673
2018-11-25T10:46:30.128Z,673.3
2018-11-25T10:47:32.288Z,673.5
2018-11-25T10:48:34.448Z,673.6
2018-11-25T10:49:36.324Z,673.5
2018-11-25T10:50:37.929Z,673.4
2018-11-25T10:51:40.375Z,673.4
2018-11-25T10:52:42.533Z,673.5
2018-11-25T10:53:44.681Z,673.4
2018-11-25T10:54:47.100Z,673.8
2018-11-25T10:55:49.069Z,673.7
2018-11-25T10:56:51.529Z,674
2018-11-25T10:57:53.988Z,673.8
2018-11-25T10:58:56.149Z,674.2
2018-11-25T10:59:58.586Z,673.7
2018-11-25T11:01:00.785Z,673.9
2018-11-25T11:02:03.230Z,674.1
2018-11-25T11:03:05.682Z,673.9
2018-11-25T11:04:08.156Z,674.2
2018-11-25T11:05:10.575Z,674.6
2018-11-25T11:06:13.001Z,674.5
2018-11-25T11:07:15.154Z,674.7
2018-11-25T11:08:17.039Z,675
2018-11-25T11:09:19.205Z,675.6
2018-11-25T11:10:21.672Z,675.9
2018-11-25T11:11:23.828Z,676
2018-11-25T11:12:26.267Z,676.2
2018-11-25T11:13:28.404Z,676.4
2018-11-25T11:14:30.830Z,676.3
2018-11-25T11:15:33.262Z,676.9
2018-11-25T11:16:35.129Z,677
2018-11-25T11:17:37.030Z,677.2
2018-11-25T11:18:40.517Z,677.5
2018-11-25T11:19:42.383Z,677.7
2018-11-25T11:20:44.540Z,677.5
2018-11-25T11:21:46.728Z,678.2
2018-11-25T11:22:49.170Z,678
2018-11-25T11:23:51.028Z,678
2018-11-25T11:24:53.462Z,678.6
2018-11-25T11:25:55.895Z,678.9
2018-11-25T11:26:58.067Z,678.9
2018-11-25T11:28:00.233Z,678.9
2018-11-25T11:29:02.409Z,679.2
2018-11-25T11:30:04.583Z,679.7
2018-11-25T11:32:12.597Z,679.9
2018-11-25T11:33:15.028Z,680.3
2018-11-25T11:34:17.189Z,680.3
2018-11-25T11:35:19.359Z,680.4
2018-11-25T11:36:21.849Z,680.6
2018-11-25T11:37:23.753Z,680.7
2018-11-25T11:38:26.201Z,681.6
2018-11-25T11:39:28.341Z,681.6
2018-11-25T11:40:30.490Z,681.9
2018-11-25T11:41:32.986Z,682.1
2018-11-25T11:42:34.872Z,682.2
2018-11-25T11:43:37.302Z,682.5
2018-11-25T11:44:39.175Z,682.5
2018-11-25T11:45:41.611Z,682.8
2018-11-25T11:46:43.748Z,682.6
2018-11-25T11:47:45.382Z,682.5
2018-11-25T11:48:47.560Z,682.9
2018-11-25T11:49:49.989Z,682.7
2018-11-25T11:50:51.856Z,683.2
2018-11-25T11:51:54.283Z,683.2
2018-11-25T11:52:56.485Z,683.2
2018-11-25T11:53:58.378Z,683.5
2018-11-25T11:55:00.548Z,683.7
2018-11-25T11:56:02.439Z,684.4
2018-11-25T11:57:04.599Z,684.5
2018-11-25T11:58:06.501Z,684.7
2018-11-25T11:59:08.124Z,684.7
2018-11-25T12:00:12.085Z,685.1
2018-11-25T12:01:14.752Z,685.2
2018-11-25T12:02:16.611Z,685.3
2018-11-25T12:04:24.527Z,686
2018-11-25T12:05:26.463Z,686.1
2018-11-25T12:06:28.368Z,686.3
2018-11-25T12:07:30.819Z,686.6
2018-11-25T12:08:33.248Z,686.7
2018-11-25T12:09:35.379Z,687
2018-11-25T12:10:37.536Z,686.6
2018-11-25T12:11:39.976Z,687
2018-11-25T12:12:42.414Z,687
2018-11-25T12:13:44.588Z,686.8
2018-11-25T12:14:50.136Z,687.2
2018-11-25T12:15:53.384Z,687.6
2018-11-25T12:16:55.547Z,687.6
2018-11-25T12:17:57.680Z,687.9
2018-11-25T12:19:00.116Z,688
2018-11-25T12:20:02.303Z,688
2018-11-25T12:21:04.750Z,687.9
2018-11-25T12:22:07.195Z,687.9
2018-11-25T12:23:09.471Z,688.4
2018-11-25T12:24:11.339Z,688.4
2018-11-25T12:25:13.779Z,688.1
2018-11-25T12:26:15.939Z,688.4
2018-11-25T12:27:18.089Z,688.4
2018-11-25T12:28:20.231Z,688.4
2018-11-25T12:29:22.383Z,688.4
2018-11-25T12:30:24.279Z,688.4
2018-11-25T12:31:26.430Z,688.6
2018-11-25T12:32:28.588Z,689.1
2018-11-25T12:33:30.739Z,689.2
2018-11-25T12:34:32.630Z,688.8
2018-11-25T12:35:35.069Z,689.1
2018-11-25T12:36:36.939Z,689
2018-11-25T12:37:39.085Z,689
2018-11-25T12:38:41.006Z,689.4
2018-11-25T12:39:43.476Z,689.8
2018-11-25T12:40:45.837Z,689.5
2018-11-25T12:41:47.721Z,689.3
2018-11-25T12:42:50.135Z,689
2018-11-25T12:43:52.306Z,689.1
2018-11-25T12:44:54.755Z,689.2
2018-11-25T12:45:56.932Z,689.6
2018-11-25T12:46:59.010Z,689.2
2018-11-25T12:48:01.162Z,689.3
2018-11-25T12:49:03.079Z,689.4
2018-11-25T12:50:05.510Z,689.5
2018-11-25T12:51:07.937Z,689.2
2018-11-25T12:52:10.379Z,689.5
2018-11-25T12:53:12.548Z,689.5
2018-11-25T12:54:14.728Z,689.4
2018-11-25T12:55:16.608Z,689.7
2018-11-25T12:56:19.049Z,689.5
2018-11-25T12:57:21.479Z,689.9
2018-11-25T12:58:23.914Z,689.6
2018-11-25T12:59:26.348Z,689.7
2018-11-25T13:00:28.503Z,689.9
2018-11-25T13:01:30.656Z,690
2018-11-25T13:02:32.902Z,689.8
2018-11-25T13:03:35.339Z,689.7
2018-11-25T13:04:37.987Z,689.7
2018-11-25T13:06:45.640Z,690.3
2018-11-25T13:07:47.593Z,690
2018-11-25T13:08:49.698Z,690.2
2018-11-25T13:09:52.101Z,690.2
2018-11-25T13:10:54.207Z,690.6
2018-11-25T13:11:56.045Z,690.6
2018-11-25T13:12:58.668Z,690.5
2018-11-25T13:14:00.702Z,690.9
2018-11-25T13:15:03.248Z,690.9
2018-11-25T13:16:05.132Z,690.9
2018-11-25T13:17:07.365Z,691.4
2018-11-25T13:18:09.954Z,691.2
2018-11-25T13:19:11.988Z,691.3
2018-11-25T13:20:14.555Z,691.7
2018-11-25T13:21:16.055Z,691.3
2018-11-25T13:22:18.435Z,691.6
2018-11-25T13:23:20.788Z,691.4
2018-11-25T13:24:23.251Z,691.5
2018-11-25T13:25:25.585Z,692
2018-11-25T13:26:28.215Z,692.1
2018-11-25T13:27:30.649Z,692.2
2018-11-25T13:28:32.983Z,692.1
2018-11-25T13:29:35.322Z,692.2
2018-11-25T13:30:37.503Z,692.1
2018-11-25T13:31:39.812Z,692.2